WABB/BIK METAR and TAF weather

Enter ICAO airport designator
Station Type Date Time Source
WABB METAR 2019/11/18 08:00 UTC NOAA

WABB 180800Z 27006KT 9999 SCT018 BKN100 29/24 Q1007 NOSIG


Station Type Date Time Source
WABB Decoded METAR 2019/11/18 08:00 UTC NOAA

Biak / Mokmer, Indonesia (WABB) 01-11S 136-07E 11M
Nov 18, 2019 - 03:00 AM EST / 2019.11.18 0800 UTC
Wind: from the W (270 degrees) at 7 MPH (6 KT):0
Visibility: greater than 7 mile(s):0
Sky conditions: mostly cloudy
Temperature: 84 F (29 C)
Dew Point: 75 F (24 C)
Relative Humidity: 74%
Pressure (altimeter): 29.74 in. Hg (1007 hPa)
ob: WABB 180800Z 27006KT 9999 SCT018 BKN100 29/24 Q1007 NOSIG
cycle: 8

Station Type Date Time Source
WABB TAF 2019/11/18 06:10 UTC NOAA

TAF WABB 180500Z 1806/1912 30008KT 9999 SCT018
TEMPO 1806/1808 RA

Example: see airport list